Time;durP1;ratioP1;P1;durP2;ratioP2;P2;SDS_P1;SDS_P2;PMS_P1;PMS_P2;Temp;Humidity;BMP_temperature;BMP_pressure;BME280_temperature;BME280_humidity;BME280_pressure;Samples;Min_cycle;Max_cycle;Signal;HPM_P1;HPM_P2
2021/10/03 00:00:04;;;;;;;11.20;7.00;;;;;;;5.74;79.40;98129.55;117301;1177;59488;-74
2021/10/03 00:03:00;;;;;;;13.20;7.10;;;;;;;5.66;78.62;98127.42;117354;1177;59513;-71
2021/10/03 00:05:31;;;;;;;19.40;7.70;;;;;;;5.59;79.99;98124.27;117007;1177;69793;-72
2021/10/03 00:08:02;;;;;;;11.10;7.20;;;;;;;5.57;81.08;98120.58;117303;1177;69211;-72
2021/10/03 00:10:31;;;;;;;;;;;;;;;5.54;81.78;98124.65;117338;1177;67298;-72
2021/10/03 00:13:04;;;;;;;10.20;6.50;;;;;;;5.52;81.14;98125.90;116947;1177;59554;-69
2021/10/03 00:15:36;;;;;;;11.40;7.20;;;;;;;5.52;81.25;98125.42;117297;1177;59594;-69
2021/10/03 00:18:08;;;;;;;12.90;7.60;;;;;;;5.56;81.90;98122.45;117317;1177;71176;-70
2021/10/03 00:20:39;;;;;;;14.40;7.80;;;;;;;5.60;82.49;98118.48;117237;1169;69183;-70
2021/10/03 00:23:10;;;;;;;11.40;7.00;;;;;;;5.64;82.84;98120.04;117233;1177;69373;-71
2021/10/03 00:25:41;;;;;;;15.30;8.00;;;;;;;5.64;82.69;98117.52;116985;1177;59549;-72
2021/10/03 00:28:10;;;;;;;10.50;7.10;;;;;;;5.62;82.58;98113.99;117348;1176;59542;-72
2021/10/03 00:30:42;;;;;;;11.10;6.70;;;;;;;5.59;82.29;98108.73;117371;1177;71252;-69
2021/10/03 00:33:12;;;;;;;11.30;6.40;;;;;;;5.53;81.82;98109.81;117359;1176;69142;-71
2021/10/03 00:35:41;;;;;;;10.20;6.50;;;;;;;5.48;82.43;98104.39;117062;1177;69153;-69
2021/10/03 00:38:11;;;;;;;10.90;6.90;;;;;;;5.43;82.36;98097.02;117051;1177;59528;-70
2021/10/03 00:40:42;;;;;;;10.40;6.90;;;;;;;5.39;82.81;98097.31;116981;1177;59519;-70
2021/10/03 00:43:14;;;;;;;11.20;6.80;;;;;;;5.34;82.44;98096.20;117051;1177;70582;-68
2021/10/03 00:45:43;;;;;;;;;;;;;;;5.29;82.45;98100.83;117088;1177;69225;-69
2021/10/03 00:48:13;;;;;;;12.70;6.80;;;;;;;5.23;82.54;98102.47;117068;1177;68408;-70
2021/10/03 00:50:45;;;;;;;12.00;7.10;;;;;;;5.15;82.72;98107.05;117031;1177;59519;-70
2021/10/03 00:53:14;;;;;;;11.20;7.00;;;;;;;5.10;82.70;98106.98;117042;1176;59449;-71
2021/10/03 00:55:44;;;;;;;10.20;6.80;;;;;;;5.08;81.83;98104.06;116977;1177;70594;-70
2021/10/03 00:58:14;;;;;;;13.90;7.20;;;;;;;5.09;81.97;98105.64;117069;1177;69006;-72
2021/10/03 01:00:44;;;;;;;10.60;7.00;;;;;;;5.10;82.83;98106.73;117017;1173;67826;-70
2021/10/03 01:03:14;;;;;;;12.90;6.80;;;;;;;5.06;83.14;98112.15;117076;1177;59520;-72
2021/10/03 01:05:43;;;;;;;13.10;7.70;;;;;;;5.00;82.27;98103.87;117029;1177;59519;-69
2021/10/03 01:08:13;;;;;;;14.20;8.60;;;;;;;4.96;82.08;98098.77;116927;1177;70637;-69
2021/10/03 01:10:43;;;;;;;;;;;;;;;4.96;83.37;98099.55;116971;1177;68364;-68
2021/10/03 01:13:12;;;;;;;11.00;7.30;;;;;;;4.96;83.86;98102.14;117039;1177;69132;-68
2021/10/03 01:15:44;;;;;;;14.10;7.30;;;;;;;4.94;83.08;98101.52;117010;1176;59522;-71
2021/10/03 01:18:14;;;;;;;11.60;7.70;;;;;;;4.91;83.06;98103.85;117110;1177;59520;-69
2021/10/03 01:20:43;;;;;;;13.10;7.30;;;;;;;4.89;82.42;98110.43;117045;1177;69751;-72
2021/10/03 01:23:15;;;;;;;16.90;7.70;;;;;;;4.84;82.57;98107.59;117029;1177;68449;-72
2021/10/03 01:25:48;;;;;;;11.50;7.20;;;;;;;4.81;82.87;98108.66;116990;1177;68307;-70
2021/10/03 01:28:19;;;;;;;13.60;7.60;;;;;;;4.78;82.24;98108.73;117061;1177;59953;-69
2021/10/03 01:30:51;;;;;;;12.70;8.10;;;;;;;4.78;82.05;98106.61;117064;1177;59466;-68
2021/10/03 01:33:23;;;;;;;9.70;6.50;;;;;;;4.75;81.90;98106.05;117081;1177;71361;-70
2021/10/03 01:35:54;;;;;;;10.10;6.70;;;;;;;4.72;84.48;98107.14;117336;1176;68395;-73
2021/10/03 01:38:25;;;;;;;12.10;7.00;;;;;;;4.67;83.79;98104.44;117282;1177;69132;-70
2021/10/03 01:40:55;;;;;;;13.60;8.00;;;;;;;4.59;83.77;98102.52;117038;1176;59954;-71
2021/10/03 01:43:25;;;;;;;12.50;7.50;;;;;;;4.48;82.77;98105.77;116987;1177;59529;-70
2021/10/03 01:45:55;;;;;;;12.10;7.60;;;;;;;4.39;82.36;98106.88;117256;1177;71333;-70
2021/10/03 01:48:46;;;;;;;11.20;6.70;;;;;;;4.31;82.75;98106.21;117031;1177;69296;-70
2021/10/03 01:51:17;;;;;;;13.10;7.60;;;;;;;4.23;82.67;98107.73;116999;1177;68148;-71
2021/10/03 01:53:51;;;;;;;11.20;6.80;;;;;;;4.19;82.55;98113.03;116950;1180;59551;-71
2021/10/03 01:56:22;;;;;;;11.30;7.00;;;;;;;4.15;82.72;98112.77;116850;1179;59562;-70
2021/10/03 01:58:53;;;;;;;;;;;;;;;4.10;82.43;98106.22;117028;1177;69472;-72
2021/10/03 02:01:36;;;;;;;14.50;7.80;;;;;;;4.04;81.91;98101.25;116959;1177;68417;-69
2021/10/03 02:04:07;;;;;;;14.40;8.70;;;;;;;4.04;81.93;98101.88;116973;1177;68489;-71
2021/10/03 02:06:45;;;;;;;14.10;8.00;;;;;;;4.03;83.54;98100.55;116986;1177;59521;-71
2021/10/03 02:09:18;;;;;;;12.80;7.60;;;;;;;3.99;82.73;98104.20;117012;1176;59513;-69
2021/10/03 02:11:51;;;;;;;10.20;6.90;;;;;;;3.93;82.97;98108.77;116993;1177;71388;-69
2021/10/03 02:14:30;;;;;;;11.00;7.40;;;;;;;3.87;83.16;98113.96;116996;1177;68515;-69
2021/10/03 02:17:02;;;;;;;12.30;6.80;;;;;;;3.81;82.86;98113.77;117008;1177;68241;-72
2021/10/03 02:19:32;;;;;;;12.20;7.70;;;;;;;3.78;83.61;98111.40;116973;1170;59488;-72
2021/10/03 02:22:02;;;;;;;15.70;9.70;;;;;;;3.78;82.90;98106.45;116975;1177;59506;-69
2021/10/03 02:24:32;;;;;;;12.10;8.10;;;;;;;3.83;84.54;98110.11;117014;1177;71393;-69
2021/10/03 02:27:02;;;;;;;15.20;9.00;;;;;;;3.85;84.92;98109.41;117006;1177;68598;-69
2021/10/03 02:29:32;;;;;;;11.70;7.90;;;;;;;3.82;83.68;98104.77;116937;1179;69243;-69
2021/10/03 02:32:04;;;;;;;10.10;7.00;;;;;;;3.77;84.60;98104.25;116997;1177;59497;-68
2021/10/03 02:34:33;;;;;;;13.20;8.50;;;;;;;3.69;84.32;98106.14;116994;1177;59542;-68
2021/10/03 02:37:03;;;;;;;12.30;8.60;;;;;;;3.63;83.51;98108.06;117013;1169;71369;-70
2021/10/03 02:39:33;;;;;;;14.20;8.80;;;;;;;3.61;83.16;98107.58;117023;1177;68522;-71
2021/10/03 02:42:03;;;;;;;13.50;9.20;;;;;;;3.61;83.47;98108.43;116940;1177;68279;-69
2021/10/03 02:44:34;;;;;;;13.80;8.20;;;;;;;3.60;83.25;98110.52;116899;1177;59503;-72
2021/10/03 02:47:11;;;;;;;10.40;7.80;;;;;;;3.56;84.07;98111.66;116995;1177;59544;-71
2021/10/03 02:49:43;;;;;;;13.10;8.30;;;;;;;3.55;85.58;98112.90;117020;1177;70548;-70
2021/10/03 02:52:13;;;;;;;16.10;9.90;;;;;;;3.51;84.54;98115.84;116907;1177;68452;-70
2021/10/03 02:54:43;;;;;;;16.20;9.70;;;;;;;3.53;84.24;98114.52;116974;1177;68454;-69
2021/10/03 02:57:14;;;;;;;12.90;8.50;;;;;;;3.52;84.30;98119.36;116957;1177;59529;-70
2021/10/03 02:59:44;;;;;;;12.60;7.20;;;;;;;3.47;84.28;98127.31;116962;1177;59477;-69
2021/10/03 03:02:13;;;;;;;10.00;6.40;;;;;;;3.36;84.70;98128.60;116952;1177;71258;-69
2021/10/03 03:04:43;;;;;;;13.50;7.70;;;;;;;3.24;84.35;98124.26;116954;1177;69193;-69
2021/10/03 03:07:13;;;;;;;13.80;9.50;;;;;;;3.19;83.86;98121.30;116975;1177;69313;-70
2021/10/03 03:09:42;;;;;;;16.50;9.60;;;;;;;3.22;83.84;98124.23;116932;1177;59622;-72
2021/10/03 03:12:12;;;;;;;10.50;7.20;;;;;;;3.23;84.69;98122.70;116941;1177;59542;-68
2021/10/03 03:14:41;;;;;;;15.10;8.30;;;;;;;3.21;85.59;98118.89;116927;1178;70398;-70
2021/10/03 03:17:16;;;;;;;18.60;8.40;;;;;;;3.17;85.97;98114.40;116957;1177;68423;-70
2021/10/03 03:19:46;;;;;;;12.60;8.50;;;;;;;3.13;85.59;98115.30;116993;1177;69090;-69
2021/10/03 03:22:16;;;;;;;11.00;8.10;;;;;;;3.10;85.97;98116.91;116952;1177;59561;-69
2021/10/03 03:24:45;;;;;;;10.90;7.70;;;;;;;3.06;85.96;98118.27;116937;1177;59511;-69
2021/10/03 03:27:15;;;;;;;13.30;8.90;;;;;;;3.04;85.66;98117.30;116988;1177;71392;-70
2021/10/03 03:29:45;;;;;;;14.90;7.60;;;;;;;3.03;86.82;98120.11;116972;1177;68487;-70
2021/10/03 03:32:14;;;;;;;15.40;9.10;;;;;;;3.02;87.68;98119.95;116933;1177;69085;-70
2021/10/03 03:34:43;;;;;;;14.50;9.10;;;;;;;3.01;87.11;98116.34;116938;1169;59532;-72
2021/10/03 03:37:13;;;;;;;21.00;11.40;;;;;;;3.01;85.28;98112.19;117012;1177;59585;-69
2021/10/03 03:39:43;;;;;;;16.10;11.00;;;;;;;3.05;84.95;98113.48;117004;1177;71006;-70
2021/10/03 03:42:13;;;;;;;15.40;9.60;;;;;;;3.05;85.73;98111.54;116940;1177;68471;-70
2021/10/03 03:44:43;;;;;;;15.20;9.90;;;;;;;3.02;86.74;98111.42;117042;1177;68565;-70
2021/10/03 03:47:12;;;;;;;13.80;8.40;;;;;;;2.99;86.23;98110.05;117005;1177;59544;-71
2021/10/03 03:49:43;;;;;;;12.80;8.90;;;;;;;2.95;86.81;98109.63;116915;1178;59583;-72
2021/10/03 03:52:12;;;;;;;11.50;7.40;;;;;;;2.93;87.46;98113.35;116973;1177;70481;-72
2021/10/03 03:54:42;;;;;;;14.30;7.30;;;;;;;2.88;87.29;98112.92;116956;1177;69152;-72
2021/10/03 03:57:12;;;;;;;15.40;8.30;;;;;;;2.86;87.19;98115.29;117001;1177;69274;-69
2021/10/03 03:59:42;;;;;;;14.30;9.00;;;;;;;2.82;86.52;98115.02;116960;1177;59494;-69
2021/10/03 04:02:12;;;;;;;14.70;8.90;;;;;;;2.82;86.96;98115.64;116979;1177;59463;-72
2021/10/03 04:04:42;;;;;;;15.40;9.50;;;;;;;2.82;86.35;98117.13;117034;1177;71014;-74
2021/10/03 04:07:12;;;;;;;17.10;9.40;;;;;;;2.83;85.71;98118.63;117002;1177;68339;-74
2021/10/03 04:09:42;;;;;;;;;;;;;;;2.83;85.59;98126.20;116927;1177;69222;-73
2021/10/03 04:12:11;;;;;;;13.50;8.80;;;;;;;2.81;85.65;98132.20;116976;1177;59504;-72
2021/10/03 04:14:42;;;;;;;13.70;9.30;;;;;;;2.77;85.39;98143.10;117005;1177;59527;-73
2021/10/03 04:17:12;;;;;;;14.40;9.30;;;;;;;2.77;85.49;98139.96;116915;1177;71278;-70
2021/10/03 04:19:41;;;;;;;13.80;9.70;;;;;;;2.78;85.34;98136.77;116969;1177;68102;-69
2021/10/03 04:22:10;;;;;;;17.60;9.70;;;;;;;2.81;85.25;98137.36;116907;1180;68284;-73
2021/10/03 04:24:40;;;;;;;16.80;11.70;;;;;;;2.81;84.98;98139.16;116965;1177;59533;-73
2021/10/03 04:27:09;;;;;;;16.90;11.60;;;;;;;2.77;85.33;98137.31;117004;1177;59529;-68
2021/10/03 04:29:39;;;;;;;24.30;12.20;;;;;;;2.70;85.90;98142.48;117030;1177;70437;-73
2021/10/03 04:32:08;;;;;;;15.90;11.70;;;;;;;2.68;86.75;98143.61;116965;1177;68243;-70
2021/10/03 04:34:37;;;;;;;18.70;11.10;;;;;;;2.68;87.21;98146.17;116992;1177;69132;-72
2021/10/03 04:37:07;;;;;;;23.00;13.40;;;;;;;2.70;87.17;98148.88;116977;1177;59530;-72
2021/10/03 04:39:37;;;;;;;24.80;14.70;;;;;;;2.81;87.14;98154.87;116977;1178;59485;-68
2021/10/03 04:42:06;;;;;;;26.10;16.30;;;;;;;2.88;87.41;98151.91;117004;1177;70596;-72
2021/10/03 04:44:36;;;;;;;24.50;14.90;;;;;;;2.94;87.38;98151.05;116986;1177;68101;-69
2021/10/03 04:47:05;;;;;;;20.00;13.00;;;;;;;3.04;88.06;98152.58;116942;1177;69260;-70
2021/10/03 04:49:35;;;;;;;22.30;13.30;;;;;;;3.20;88.85;98159.01;116962;1177;59513;-71
2021/10/03 04:52:05;;;;;;;20.40;12.10;;;;;;;3.39;89.14;98156.25;116945;1177;59516;-72
2021/10/03 04:54:34;;;;;;;16.90;10.40;;;;;;;3.54;88.97;98158.27;116960;1179;71389;-71
2021/10/03 04:57:03;;;;;;;14.60;9.20;;;;;;;3.62;88.53;98158.60;116964;1177;69221;-72
2021/10/03 04:59:32;;;;;;;14.90;9.70;;;;;;;3.68;88.20;98161.55;116961;1177;68490;-71
2021/10/03 05:02:01;;;;;;;18.60;10.40;;;;;;;3.79;88.23;98154.91;116978;1177;59592;-69
2021/10/03 05:04:31;;;;;;;16.50;9.00;;;;;;;3.95;87.80;98155.22;116999;1177;59508;-71
2021/10/03 05:07:01;;;;;;;13.50;8.70;;;;;;;4.17;87.07;98159.23;116977;1177;70898;-72
2021/10/03 05:09:30;;;;;;;13.40;8.20;;;;;;;4.40;84.80;98156.57;116940;1177;69017;-73
2021/10/03 05:12:00;;;;;;;10.90;7.40;;;;;;;4.69;83.94;98158.46;116956;1177;68254;-72
2021/10/03 05:14:29;;;;;;;10.70;6.80;;;;;;;5.03;84.26;98164.67;116924;1177;59532;-69
2021/10/03 05:16:58;;;;;;;11.50;7.50;;;;;;;5.44;85.02;98166.38;116988;1177;59490;-72
2021/10/03 05:19:27;;;;;;;10.70;7.10;;;;;;;5.70;81.76;98170.14;116880;1177;70597;-70
2021/10/03 05:21:56;;;;;;;9.70;6.40;;;;;;;5.84;77.46;98174.56;116938;1177;68478;-70
2021/10/03 05:24:26;;;;;;;9.10;6.50;;;;;;;6.10;77.47;98168.23;116951;1177;68266;-72
2021/10/03 05:26:55;;;;;;;15.20;8.10;;;;;;;6.37;78.25;98167.52;116948;1177;59491;-69
2021/10/03 05:29:25;;;;;;;16.70;8.40;;;;;;;6.67;78.11;98165.27;116994;1177;59561;-72
2021/10/03 05:31:54;;;;;;;13.90;7.10;;;;;;;6.88;74.93;98169.06;116956;1177;69703;-72
2021/10/03 05:34:23;;;;;;;11.70;7.80;;;;;;;6.89;71.79;98166.70;116945;1177;69256;-73
2021/10/03 05:36:52;;;;;;;13.00;8.00;;;;;;;6.87;70.62;98169.86;116907;1178;69054;-74
2021/10/03 05:39:22;;;;;;;11.60;7.20;;;;;;;7.15;72.92;98175.27;116942;1177;59516;-74
2021/10/03 05:41:51;;;;;;;12.60;7.90;;;;;;;7.44;73.26;98180.73;116909;1177;59526;-70
2021/10/03 05:44:20;;;;;;;16.80;9.50;;;;;;;7.75;70.75;98181.73;116944;1177;70909;-69
2021/10/03 05:46:49;;;;;;;26.60;16.40;;;;;;;8.10;71.39;98183.33;116980;1177;69264;-70
2021/10/03 05:49:18;;;;;;;23.60;14.30;;;;;;;8.42;71.13;98180.88;116931;1177;68502;-70
2021/10/03 05:51:47;;;;;;;21.90;14.10;;;;;;;8.60;68.18;98172.91;116876;1177;59536;-71
2021/10/03 05:54:16;;;;;;;21.10;12.80;;;;;;;8.82;69.34;98176.63;116909;1177;59717;-69
2021/10/03 05:56:45;;;;;;;21.70;14.60;;;;;;;9.06;68.47;98179.38;116900;1178;69465;-71
2021/10/03 05:59:14;;;;;;;31.30;17.30;;;;;;;9.20;65.72;98182.77;116983;1177;69404;-72
2021/10/03 06:01:43;;;;;;;28.50;19.30;;;;;;;9.51;68.05;98181.58;117018;1177;68364;-71
2021/10/03 06:04:12;;;;;;;28.80;18.60;;;;;;;9.78;64.88;98181.30;116991;1177;59516;-71
2021/10/03 06:06:41;;;;;;;27.70;19.10;;;;;;;10.17;66.11;98181.73;116943;1177;59480;-69
2021/10/03 06:09:10;;;;;;;25.60;17.00;;;;;;;10.57;66.19;98175.42;116922;1180;71213;-71
2021/10/03 06:11:40;;;;;;;22.00;14.30;;;;;;;10.95;65.44;98172.28;117028;1177;68493;-71
2021/10/03 06:14:09;;;;;;;15.80;10.00;;;;;;;11.25;64.16;98167.48;116927;1177;69000;-72
2021/10/03 06:16:42;;;;;;;15.40;10.00;;;;;;;11.40;63.36;98170.28;116949;1178;59558;-70
2021/10/03 06:19:11;;;;;;;18.80;10.50;;;;;;;11.54;63.49;98172.20;116962;1177;59472;-70
2021/10/03 06:21:40;;;;;;;16.20;9.30;;;;;;;11.81;61.87;98177.09;116929;1177;70361;-70
2021/10/03 06:24:09;;;;;;;16.00;9.40;;;;;;;12.09;61.73;98178.84;116906;1177;69044;-72
2021/10/03 06:26:43;;;;;;;12.20;7.20;;;;;;;12.42;61.25;98178.67;117030;1177;69017;-70
2021/10/03 06:29:13;;;;;;;12.10;7.70;;;;;;;12.56;58.53;98182.63;116989;1177;59577;-73
2021/10/03 06:31:43;;;;;;;10.80;7.20;;;;;;;12.70;56.75;98183.13;116989;1177;59638;-74
2021/10/03 06:34:12;;;;;;;15.80;6.80;;;;;;;12.99;57.15;98185.95;117056;1177;71461;-70
2021/10/03 06:36:41;;;;;;;14.60;7.20;;;;;;;13.44;58.45;98183.45;116980;1177;69742;-71
2021/10/03 06:39:10;;;;;;;15.50;7.90;;;;;;;13.84;57.32;98179.72;116967;1177;69044;-71
2021/10/03 06:41:39;;;;;;;17.70;9.90;;;;;;;14.11;56.85;98177.60;116957;1177;59532;-73
2021/10/03 06:44:11;;;;;;;22.20;10.30;;;;;;;14.52;55.51;98178.00;116968;1177;59491;-71
2021/10/03 06:46:40;;;;;;;;;;;;;;;14.87;54.75;98177.54;116972;1177;71209;-74
2021/10/03 06:49:10;;;;;;;17.20;9.80;;;;;;;14.62;52.86;98180.17;117043;1177;69277;-71
2021/10/03 06:51:42;;;;;;;18.30;9.00;;;;;;;14.52;52.10;98175.98;116953;1177;69419;-70
2021/10/03 06:54:12;;;;;;;12.60;8.20;;;;;;;14.51;52.02;98178.97;117016;1177;59533;-73
2021/10/03 06:56:41;;;;;;;13.90;8.60;;;;;;;14.94;51.02;98177.29;116967;1177;59504;-72
2021/10/03 06:59:10;;;;;;;14.40;8.60;;;;;;;15.37;51.11;98178.55;116983;1177;70640;-73
2021/10/03 07:01:39;;;;;;;9.90;6.50;;;;;;;15.57;49.99;98173.34;116969;1176;68497;-72
2021/10/03 07:04:08;;;;;;;10.60;5.20;;;;;;;15.58;48.02;98169.25;116994;1177;68300;-72
2021/10/03 07:06:37;;;;;;;10.30;6.40;;;;;;;15.21;48.94;98168.42;116926;1177;59524;-73
2021/10/03 07:09:06;;;;;;;10.90;4.90;;;;;;;15.49;49.31;98168.04;116986;1177;59520;-73
2021/10/03 07:11:35;;;;;;;14.40;5.30;;;;;;;15.73;48.77;98171.76;117025;1177;71479;-70
2021/10/03 07:14:04;;;;;;;12.50;5.50;;;;;;;15.76;48.28;98173.20;116998;1177;69906;-73
2021/10/03 07:16:33;;;;;;;8.10;5.20;;;;;;;16.11;48.03;98172.16;116953;1178;68516;-71
2021/10/03 07:19:02;;;;;;;8.30;4.80;;;;;;;16.29;46.52;98167.81;117011;1177;59539;-73
2021/10/03 07:21:31;;;;;;;11.50;4.90;;;;;;;16.11;47.17;98173.28;116986;1177;59484;-73
2021/10/03 07:24:01;;;;;;;7.00;4.60;;;;;;;16.43;46.13;98174.68;117042;1177;71390;-70
2021/10/03 07:26:30;;;;;;;9.70;4.70;;;;;;;16.50;46.16;98175.41;116993;1177;69205;-70
2021/10/03 07:28:59;;;;;;;8.30;5.10;;;;;;;16.68;45.51;98170.62;116968;1177;68554;-71
2021/10/03 07:31:28;;;;;;;9.10;4.70;;;;;;;17.27;44.71;98164.66;116983;1177;59542;-71
2021/10/03 07:33:57;;;;;;;9.40;4.70;;;;;;;17.11;43.50;98162.71;117028;1177;59571;-73
2021/10/03 07:36:26;;;;;;;9.50;4.70;;;;;;;17.47;43.57;98167.38;117014;1177;71584;-71
2021/10/03 07:38:56;;;;;;;9.50;4.80;;;;;;;18.03;43.38;98163.08;116917;1177;67414;-72
2021/10/03 07:41:25;;;;;;;12.30;4.90;;;;;;;18.45;41.92;98163.88;116973;1177;69919;-71
2021/10/03 07:43:54;;;;;;;10.10;4.40;;;;;;;18.22;41.55;98163.77;116995;1177;59567;-68
2021/10/03 07:46:23;;;;;;;9.40;4.60;;;;;;;18.40;41.01;98166.63;117002;1177;59523;-73
2021/10/03 07:48:53;;;;;;;10.60;4.70;;;;;;;18.47;40.96;98167.33;116987;1177;71400;-72
2021/10/03 07:51:22;;;;;;;8.40;4.30;;;;;;;19.16;39.40;98172.30;116947;1177;69222;-70
2021/10/03 07:53:51;;;;;;;9.00;4.80;;;;;;;19.08;38.98;98175.04;116860;1178;69075;-72
2021/10/03 07:56:20;;;;;;;8.50;4.60;;;;;;;19.53;39.16;98175.40;116931;1177;59505;-71
2021/10/03 07:58:48;;;;;;;11.20;5.90;;;;;;;19.96;37.94;98169.81;117059;1177;59529;-71
2021/10/03 08:01:18;;;;;;;10.80;6.60;;;;;;;20.50;36.43;98170.01;117009;1177;72045;-73
2021/10/03 08:03:47;;;;;;;10.70;4.50;;;;;;;20.68;36.24;98174.66;117044;1177;68808;-70
2021/10/03 08:06:17;;;;;;;11.70;4.80;;;;;;;20.81;33.25;98171.27;116941;1177;69538;-71
2021/10/03 08:08:46;;;;;;;6.80;4.00;;;;;;;21.42;32.73;98168.92;117032;1177;59555;-73
2021/10/03 08:11:15;;;;;;;6.50;4.30;;;;;;;21.09;32.10;98165.77;116973;1177;59452;-73
2021/10/03 08:13:44;;;;;;;11.30;3.60;;;;;;;21.50;31.04;98161.03;116908;1177;70590;-74
2021/10/03 08:16:16;;;;;;;7.60;4.00;;;;;;;21.70;30.82;98160.05;116867;1177;69163;-73
2021/10/03 08:18:46;;;;;;;7.10;3.90;;;;;;;21.79;30.33;98156.44;116893;1177;69377;-70
2021/10/03 08:21:16;;;;;;;;;;;;;;;21.44;31.03;98155.70;116977;1177;59490;-72
2021/10/03 08:23:45;;;;;;;7.10;4.20;;;;;;;21.28;31.06;98158.11;116949;1177;59856;-70
2021/10/03 08:26:15;;;;;;;6.20;3.80;;;;;;;21.61;30.40;98155.20;116974;1177;71511;-73
2021/10/03 08:28:44;;;;;;;8.90;4.20;;;;;;;21.78;30.07;98156.98;116926;1177;68558;-72
2021/10/03 08:31:14;;;;;;;7.60;4.00;;;;;;;21.47;29.79;98154.22;116983;1177;68280;-72
2021/10/03 08:33:44;;;;;;;8.20;3.60;;;;;;;21.77;29.87;98155.55;116926;1177;59497;-71
2021/10/03 08:36:13;;;;;;;7.30;4.20;;;;;;;22.05;29.48;98159.17;116956;1169;59519;-71
2021/10/03 08:38:42;;;;;;;11.70;3.90;;;;;;;22.30;29.41;98159.16;116960;1177;72011;-71
2021/10/03 08:41:12;;;;;;;8.40;3.90;;;;;;;22.43;29.07;98155.41;116920;1177;69222;-70
2021/10/03 08:43:41;;;;;;;6.90;3.90;;;;;;;22.35;29.40;98149.81;116886;1177;68233;-73
2021/10/03 08:46:16;;;;;;;7.40;3.80;;;;;;;22.67;28.73;98149.59;116957;1174;59894;-71
2021/10/03 08:48:45;;;;;;;6.60;3.70;;;;;;;22.61;28.82;98149.97;116872;1177;59536;-71
2021/10/03 08:51:15;;;;;;;7.90;4.20;;;;;;;22.94;29.27;98149.86;116955;1177;71418;-73
2021/10/03 08:53:46;;;;;;;8.30;3.40;;;;;;;23.33;28.64;98148.70;116894;1177;68428;-73
2021/10/03 08:56:16;;;;;;;11.40;4.00;;;;;;;23.76;27.68;98141.55;116811;1179;69354;-73
2021/10/03 08:58:45;;;;;;;8.40;4.00;;;;;;;23.77;27.22;98138.20;116985;1178;59531;-72
2021/10/03 09:01:15;;;;;;;6.70;4.00;;;;;;;23.77;27.93;98135.18;116896;1177;59520;-70
2021/10/03 09:03:44;;;;;;;8.60;3.80;;;;;;;24.29;27.19;98137.17;116979;1177;71182;-72
2021/10/03 09:06:14;;;;;;;9.40;3.80;;;;;;;24.26;26.60;98136.14;117006;1177;68631;-70
2021/10/03 09:08:45;;;;;;;8.90;4.10;;;;;;;24.30;27.29;98137.69;116906;1179;69551;-70
2021/10/03 09:11:16;;;;;;;8.10;3.80;;;;;;;24.58;26.65;98137.18;117008;1177;59530;-71
2021/10/03 09:13:51;;;;;;;5.30;3.50;;;;;;;25.13;26.74;98131.75;116993;1176;59538;-71
2021/10/03 09:16:33;;;;;;;6.50;3.80;;;;;;;25.31;26.19;98130.36;116999;1177;71388;-72
2021/10/03 09:19:11;;;;;;;8.80;3.80;;;;;;;25.59;25.26;98129.98;116993;1177;69434;-71
2021/10/03 09:21:44;;;;;;;6.90;3.80;;;;;;;25.73;24.83;98123.30;117021;1177;69386;-73
2021/10/03 09:24:16;;;;;;;7.80;3.70;;;;;;;25.25;24.50;98117.55;117010;1177;59580;-73
2021/10/03 09:27:01;;;;;;;5.90;3.40;;;;;;;25.86;24.76;98113.07;116943;1177;59552;-70
2021/10/03 09:29:34;;;;;;;6.60;3.70;;;;;;;25.66;25.00;98108.46;117006;1177;70773;-71
2021/10/03 09:32:25;;;;;;;10.50;3.70;;;;;;;26.24;24.00;98108.58;116820;1180;69328;-73
2021/10/03 09:35:00;;;;;;;8.00;3.30;;;;;;;26.54;23.57;98109.60;116990;1177;68431;-73
2021/10/03 09:37:32;;;;;;;6.50;3.60;;;;;;;26.63;23.31;98112.64;116940;1174;59530;-74
2021/10/03 09:40:15;;;;;;;8.60;3.80;;;;;;;26.52;23.11;98111.70;116945;1177;59468;-73
2021/10/03 09:43:04;;;;;;;6.30;3.90;;;;;;;26.42;23.49;98109.51;117030;1177;70664;-72
2021/10/03 09:45:33;;;;;;;7.60;3.40;;;;;;;26.47;23.04;98103.84;116929;1177;68673;-71
2021/10/03 09:48:08;;;;;;;6.30;3.70;;;;;;;25.39;24.60;98102.80;116875;1177;69331;-73
2021/10/03 09:50:40;;;;;;;7.80;3.80;;;;;;;25.98;24.09;98102.36;116973;1177;59472;-72
2021/10/03 09:53:09;;;;;;;8.70;3.80;;;;;;;26.20;24.08;98101.19;116929;1177;59497;-74
2021/10/03 09:55:41;;;;;;;5.40;3.60;;;;;;;26.66;22.96;98101.89;117018;1177;70519;-72
2021/10/03 09:58:12;;;;;;;7.70;3.50;;;;;;;25.94;23.72;98099.70;116999;1177;69052;-73
2021/10/03 10:00:42;;;;;;;8.30;3.70;;;;;;;24.67;25.58;98100.27;116948;1177;68364;-73
2021/10/03 10:03:14;;;;;;;6.40;3.60;;;;;;;25.29;24.83;98091.21;116975;1177;59501;-72
2021/10/03 10:05:43;;;;;;;6.90;3.60;;;;;;;25.50;25.12;98088.27;117035;1177;59465;-74
2021/10/03 10:08:12;;;;;;;7.20;3.80;;;;;;;26.14;24.34;98084.66;116984;1177;70760;-73
2021/10/03 10:10:41;;;;;;;7.10;3.80;;;;;;;25.80;24.33;98084.56;116987;1177;68714;-72
2021/10/03 10:13:15;;;;;;;6.50;3.40;;;;;;;25.71;24.71;98088.04;116990;1177;69226;-72
2021/10/03 10:15:44;;;;;;;9.50;3.20;;;;;;;26.10;23.70;98087.20;117041;1176;59520;-73
2021/10/03 10:18:22;;;;;;;6.70;3.40;;;;;;;26.41;23.41;98085.14;116995;1177;59494;-73
2021/10/03 10:20:53;;;;;;;6.90;3.40;;;;;;;26.76;22.92;98079.58;116993;1177;71725;-72
2021/10/03 10:23:30;;;;;;;5.50;3.30;;;;;;;27.06;22.42;98079.38;116949;1181;68175;-73
2021/10/03 10:26:00;;;;;;;6.50;3.30;;;;;;;27.29;21.88;98074.14;117000;1170;69302;-74
2021/10/03 10:28:29;;;;;;;6.50;3.00;;;;;;;27.56;21.92;98065.15;116974;1177;59514;-73
2021/10/03 10:31:02;;;;;;;4.50;3.10;;;;;;;27.70;21.79;98061.52;116973;1177;59509;-73
2021/10/03 10:33:50;;;;;;;8.50;3.10;;;;;;;27.84;21.91;98059.39;117029;1177;71347;-74
2021/10/03 10:36:20;;;;;;;6.90;3.40;;;;;;;27.84;21.92;98052.98;117009;1177;69215;-74
2021/10/03 10:39:08;;;;;;;5.90;3.10;;;;;;;28.10;21.70;98050.65;117003;1177;69044;-74
2021/10/03 10:41:40;;;;;;;9.40;3.30;;;;;;;28.13;20.86;98045.21;117032;1177;59488;-74
2021/10/03 10:44:24;;;;;;;5.50;3.00;;;;;;;27.91;21.01;98049.90;117011;1177;59529;-74
2021/10/03 10:47:00;;;;;;;3.90;2.90;;;;;;;27.66;20.90;98045.58;117032;1171;72019;-74
2021/10/03 10:49:37;;;;;;;5.20;2.80;;;;;;;27.58;21.22;98042.06;117050;1177;69199;-74
2021/10/03 10:52:22;;;;;;;5.40;2.90;;;;;;;27.12;21.69;98040.80;117024;1177;68626;-74
2021/10/03 10:55:25;;;;;;;4.70;2.80;;;;;;;27.38;21.52;98038.90;116922;1177;59596;-74
2021/10/03 10:58:12;;;;;;;6.80;2.90;;;;;;;27.37;20.77;98033.73;116562;1180;59918;-75
2021/10/03 11:00:54;;;;;;;5.50;3.00;;;;;;;27.11;20.84;98025.23;116565;1180;71513;-74
2021/10/03 11:03:41;;;;;;;5.20;2.90;;;;;;;26.90;21.63;98028.88;116486;1180;69337;-73
2021/10/03 11:06:25;;;;;;;5.80;2.90;;;;;;;27.01;21.77;98021.36;116529;1180;69325;-73
2021/10/03 11:08:57;;;;;;;6.30;3.10;;;;;;;27.69;21.89;98022.06;116531;1180;59620;-73
2021/10/03 11:11:31;;;;;;;7.70;2.90;;;;;;;28.20;21.68;98019.36;116532;1180;59647;-74
2021/10/03 11:14:09;;;;;;;8.50;3.60;;;;;;;28.91;20.01;98013.77;116541;1180;70564;-74
2021/10/03 11:16:46;;;;;;;5.70;3.30;;;;;;;29.10;20.05;98014.56;116501;1180;69502;-72
2021/10/03 11:19:22;;;;;;;6.30;3.50;;;;;;;27.67;21.52;98015.50;116552;1180;69247;-73
2021/10/03 11:21:59;;;;;;;7.80;3.10;;;;;;;27.50;21.94;98007.85;116571;1173;59564;-74
2021/10/03 11:24:41;;;;;;;4.90;3.00;;;;;;;28.53;21.49;98011.50;116581;1180;59608;-74
2021/10/03 11:27:16;;;;;;;7.10;3.20;;;;;;;28.71;20.15;98005.32;116550;1180;71980;-71
2021/10/03 11:29:55;;;;;;;11.80;3.30;;;;;;;28.31;20.93;98003.01;116558;1180;69343;-74
2021/10/03 11:32:30;;;;;;;5.00;3.10;;;;;;;28.80;20.87;98001.59;116543;1180;69073;-74
2021/10/03 11:35:06;;;;;;;6.00;3.10;;;;;;;28.96;20.57;98000.98;116902;1177;59620;-72
2021/10/03 11:37:51;;;;;;;5.60;3.00;;;;;;;28.99;19.65;98003.54;117253;1177;59535;-74
2021/10/03 11:40:24;;;;;;;5.00;3.00;;;;;;;29.08;19.99;97996.20;117239;1177;71348;-73
2021/10/03 11:42:57;;;;;;;6.40;3.20;;;;;;;28.95;20.09;97996.34;117110;1176;68622;-72